createdAt,value
2023-04-09T00:02:22.782Z,100141.06
2023-04-09T00:04:51.450Z,100134.22
2023-04-09T00:07:21.494Z,100130.88
2023-04-09T00:09:50.205Z,100134.31
2023-04-09T00:12:18.774Z,100127.47
2023-04-09T00:14:47.406Z,100136.88
2023-04-09T00:17:16.385Z,100134.31
2023-04-09T00:19:45.119Z,100134.38
2023-04-09T00:22:13.837Z,100127.53
2023-04-09T00:24:43.876Z,100125.88
2023-04-09T00:27:12.529Z,100122.53
2023-04-09T00:29:41.205Z,100119.16
2023-04-09T00:32:09.845Z,100125.16
2023-04-09T00:34:38.881Z,100129.38
2023-04-09T00:37:08.572Z,100120.06
2023-04-09T00:39:37.238Z,100116.72
2023-04-09T00:42:07.270Z,100120.13
2023-04-09T00:44:36.093Z,100116.72
2023-04-09T00:47:05.027Z,100116.00
2023-04-09T00:49:33.817Z,100109.16
2023-04-09T00:52:02.537Z,100108.34
2023-04-09T00:54:31.219Z,100110.06
2023-04-09T00:57:01.090Z,100114.34
2023-04-09T00:59:31.583Z,100113.53
2023-04-09T01:02:00.351Z,100116.09
2023-04-09T01:04:29.138Z,100114.50
2023-04-09T01:07:07.071Z,100115.41
2023-04-09T01:09:42.601Z,100106.16
2023-04-09T01:12:19.782Z,100116.47
2023-04-09T01:14:58.371Z,100127.56
2023-04-09T01:17:35.982Z,100128.44
2023-04-09T01:20:11.727Z,100120.06
2023-04-09T01:22:56.140Z,100114.19
2023-04-09T01:25:46.349Z,100110.16
2023-04-09T01:28:22.815Z,100114.50
2023-04-09T01:30:59.740Z,100117.13
2023-04-09T01:33:30.760Z,100115.56
2023-04-09T01:36:01.488Z,100115.63
2023-04-09T01:38:30.278Z,100115.72
2023-04-09T01:41:00.893Z,100107.38
2023-04-09T01:43:33.405Z,100112.56
2023-04-09T01:46:07.252Z,100114.25
2023-04-09T01:48:36.129Z,100116.91
2023-04-09T01:51:05.436Z,100115.25
2023-04-09T01:53:34.094Z,100116.16
2023-04-09T01:56:03.719Z,100120.41
2023-04-09T01:58:35.233Z,100119.59
2023-04-09T02:01:11.999Z,100122.22
2023-04-09T02:03:47.918Z,100126.50
2023-04-09T02:06:26.734Z,100122.31
2023-04-09T02:08:56.167Z,100113.09
2023-04-09T02:11:27.224Z,100122.44
2023-04-09T02:13:59.725Z,100119.94
2023-04-09T02:16:29.289Z,100116.66
2023-04-09T02:18:57.957Z,100137.94
2023-04-09T02:21:27.142Z,100120.16
2023-04-09T02:23:55.948Z,100130.44
2023-04-09T02:26:25.225Z,100120.31
2023-04-09T02:28:54.194Z,100121.22
2023-04-09T02:31:24.626Z,100126.38
2023-04-09T02:33:54.194Z,100126.47
2023-04-09T02:36:22.908Z,100115.44
2023-04-09T02:38:51.715Z,100122.25
2023-04-09T02:41:21.504Z,100124.03
2023-04-09T02:43:50.126Z,100121.56
2023-04-09T02:46:18.899Z,100121.66
2023-04-09T02:48:48.979Z,100121.72
2023-04-09T02:51:17.644Z,100124.34
2023-04-09T02:53:46.328Z,100121.03
2023-04-09T02:56:15.065Z,100122.91
2023-04-09T02:58:43.702Z,100120.41
2023-04-09T03:01:12.365Z,100126.44
2023-04-09T03:03:42.408Z,100118.00
2023-04-09T03:06:12.495Z,100113.81
2023-04-09T03:08:41.260Z,100114.72
2023-04-09T03:11:09.843Z,100111.41
2023-04-09T03:13:38.556Z,100114.84
2023-04-09T03:16:08.601Z,100120.88
2023-04-09T03:18:37.625Z,100119.22
2023-04-09T03:21:08.120Z,100110.06
2023-04-09T03:23:40.878Z,100115.31
2023-04-09T03:26:10.168Z,100111.97
2023-04-09T03:28:46.575Z,100112.88
2023-04-09T03:31:15.442Z,100113.75
2023-04-09T03:33:45.604Z,100116.31
2023-04-09T03:36:15.553Z,100113.03
2023-04-09T03:39:01.950Z,100114.81
2023-04-09T03:41:39.745Z,100114.06
2023-04-09T03:44:12.837Z,100107.31
2023-04-09T03:47:04.455Z,100112.47
2023-04-09T03:49:33.268Z,100116.84
2023-04-09T03:52:09.826Z,100114.31
2023-04-09T03:54:44.633Z,100117.78
2023-04-09T03:57:18.626Z,100110.16
2023-04-09T03:59:50.136Z,100113.59
2023-04-09T04:02:22.171Z,100110.22
2023-04-09T04:04:59.640Z,100112.81
2023-04-09T04:07:34.426Z,100112.06
2023-04-09T04:10:15.877Z,100107.88
2023-04-09T04:12:47.783Z,100111.31
2023-04-09T04:15:46.946Z,100114.78
2023-04-09T04:18:17.523Z,100113.13
2023-04-09T04:20:50.054Z,100116.53
2023-04-09T04:23:19.137Z,100112.25
2023-04-09T04:26:10.835Z,100120.06
2023-04-09T04:28:40.411Z,100121.78
2023-04-09T04:31:13.927Z,100124.41
2023-04-09T04:33:43.896Z,100119.38
2023-04-09T04:36:16.471Z,100120.38
2023-04-09T04:38:49.284Z,100122.13
2023-04-09T04:41:30.562Z,100117.91
2023-04-09T04:44:11.104Z,100130.72
2023-04-09T04:46:40.370Z,100125.69
2023-04-09T04:49:08.997Z,100120.69
2023-04-09T04:51:46.094Z,100125.78
2023-04-09T04:54:16.953Z,100126.66
2023-04-09T04:56:54.569Z,100129.22
2023-04-09T04:59:38.841Z,100128.47
2023-04-09T05:02:08.932Z,100126.81
2023-04-09T05:04:47.923Z,100134.44
2023-04-09T05:07:19.501Z,100134.44
2023-04-09T05:09:54.821Z,100132.78
2023-04-09T05:12:24.822Z,100135.41
2023-04-09T05:14:54.999Z,100126.94
2023-04-09T05:17:24.765Z,100135.41
2023-04-09T05:19:53.909Z,100132.03
2023-04-09T05:22:28.554Z,100132.84
2023-04-09T05:24:57.178Z,100137.94
2023-04-09T05:27:28.309Z,100138.75
2023-04-09T05:30:02.299Z,100139.69
2023-04-09T05:32:31.033Z,100135.41
2023-04-09T05:35:00.029Z,100140.50
2023-04-09T05:37:30.449Z,100144.78
2023-04-09T05:39:59.100Z,100142.16
2023-04-09T05:42:29.143Z,100140.44
2023-04-09T05:45:03.474Z,100139.53
2023-04-09T05:47:32.245Z,100133.50
2023-04-09T05:50:10.616Z,100136.84
2023-04-09T05:52:39.407Z,100132.63
2023-04-09T05:55:09.926Z,100136.84
2023-04-09T05:57:46.727Z,100137.63
2023-04-09T06:00:18.358Z,100142.72
2023-04-09T06:02:48.486Z,100144.34
2023-04-09T06:05:17.432Z,100140.03
2023-04-09T06:07:46.243Z,100141.75
2023-04-09T06:10:16.054Z,100134.84
2023-04-09T06:12:46.104Z,100142.44
2023-04-09T06:15:14.923Z,100144.84
2023-04-09T06:17:43.565Z,100140.50
2023-04-09T06:20:12.965Z,100148.00
2023-04-09T06:22:41.596Z,100146.16
2023-04-09T06:25:10.544Z,100138.44
2023-04-09T06:27:39.236Z,100145.06
2023-04-09T06:30:11.867Z,100156.81
2023-04-09T06:32:53.051Z,100147.34
2023-04-09T06:35:23.418Z,100154.00
2023-04-09T06:37:52.094Z,100152.22
2023-04-09T06:40:23.304Z,100145.34
2023-04-09T06:42:52.190Z,100154.53
2023-04-09T06:45:44.920Z,100152.75
2023-04-09T06:48:13.551Z,100161.19
2023-04-09T06:50:42.164Z,100156.81
2023-04-09T06:53:10.950Z,100163.44
2023-04-09T06:55:39.799Z,100155.72
2023-04-09T06:58:08.454Z,100154.66
2023-04-09T07:00:37.161Z,100157.13
2023-04-09T07:03:09.266Z,100155.28
2023-04-09T07:05:38.275Z,100159.41
2023-04-09T07:08:07.416Z,100164.28
2023-04-09T07:10:36.235Z,100165.88
2023-04-09T07:13:05.074Z,100159.72
2023-04-09T07:15:34.011Z,100165.59
2023-04-09T07:18:02.757Z,100155.25
2023-04-09T07:20:34.401Z,100153.38
2023-04-09T07:23:03.019Z,100152.34
2023-04-09T07:25:32.454Z,100153.03
2023-04-09T07:28:01.204Z,100149.53
2023-04-09T07:30:29.907Z,100143.38
2023-04-09T07:32:58.617Z,100137.22
2023-04-09T07:35:27.783Z,100147.97
2023-04-09T07:37:58.843Z,100150.31
2023-04-09T07:40:27.706Z,100140.75
2023-04-09T07:42:58.192Z,100144.81
2023-04-09T07:45:26.917Z,100142.94
2023-04-09T07:47:55.656Z,100138.53
2023-04-09T07:50:24.649Z,100144.34
2023-04-09T07:52:53.332Z,100142.50
2023-04-09T07:55:23.342Z,100139.06
2023-04-09T07:57:52.051Z,100146.38
2023-04-09T08:00:21.424Z,100156.38
2023-04-09T08:02:50.225Z,100152.78
2023-04-09T08:05:19.158Z,100151.78
2023-04-09T08:07:47.876Z,100156.66
2023-04-09T08:10:16.951Z,100152.16
2023-04-09T08:12:49.274Z,100159.66
2023-04-09T08:15:18.076Z,100158.59
2023-04-09T08:17:46.787Z,100163.53
2023-04-09T08:20:16.981Z,100163.41
2023-04-09T08:22:45.648Z,100167.47
2023-04-09T08:25:14.296Z,100167.28
2023-04-09T08:27:43.052Z,100165.38
2023-04-09T08:30:14.508Z,100167.81
2023-04-09T08:32:45.641Z,100164.28
2023-04-09T08:35:14.676Z,100168.41
2023-04-09T08:37:43.908Z,100167.34
2023-04-09T08:40:13.439Z,100174.00
2023-04-09T08:42:46.471Z,100169.56
2023-04-09T08:45:17.207Z,100175.34
2023-04-09T08:47:48.377Z,100171.81
2023-04-09T08:50:17.228Z,100171.72
2023-04-09T08:52:49.023Z,100178.50
2023-04-09T08:55:17.945Z,100169.00
2023-04-09T08:57:46.652Z,100170.59
2023-04-09T09:00:17.181Z,100171.19
2023-04-09T09:03:06.839Z,100176.91
2023-04-09T09:05:40.800Z,100168.16
2023-04-09T09:08:10.410Z,100172.94
2023-04-09T09:10:41.515Z,100173.59
2023-04-09T09:13:21.361Z,100165.84
2023-04-09T09:15:55.164Z,100177.81
2023-04-09T09:18:40.507Z,100176.16
2023-04-09T09:21:12.976Z,100172.13
2023-04-09T09:23:42.444Z,100170.47
2023-04-09T09:26:16.504Z,100175.41
2023-04-09T09:28:46.953Z,100167.50
2023-04-09T09:31:20.411Z,100165.44
2023-04-09T09:33:51.176Z,100168.06
2023-04-09T09:36:33.443Z,100155.88
2023-04-09T09:39:09.927Z,100156.81
2023-04-09T09:41:38.965Z,100164.75
2023-04-09T09:44:08.230Z,100169.63
2023-04-09T09:46:41.354Z,100162.75
2023-04-09T09:49:10.920Z,100163.03
2023-04-09T09:51:41.664Z,100161.22
2023-04-09T09:54:12.958Z,100160.78
2023-04-09T09:56:43.477Z,100167.47
2023-04-09T09:59:18.163Z,100165.00
2023-04-09T10:01:49.829Z,100164.25
2023-04-09T10:04:21.516Z,100165.34
2023-04-09T10:06:53.472Z,100155.28
2023-04-09T10:09:24.788Z,100158.19
2023-04-09T10:11:53.832Z,100165.34
2023-04-09T10:14:23.629Z,100153.78
2023-04-09T10:16:53.944Z,100157.63
2023-04-09T10:19:23.894Z,100158.00
2023-04-09T10:22:00.864Z,100156.59
2023-04-09T10:24:29.631Z,100149.25
2023-04-09T10:27:12.549Z,100149.47
2023-04-09T10:29:48.014Z,100151.41
2023-04-09T10:32:23.622Z,100143.88
2023-04-09T10:34:52.519Z,100146.63
2023-04-09T10:37:24.365Z,100145.81
2023-04-09T10:39:54.230Z,100147.47
2023-04-09T10:42:25.868Z,100148.28
2023-04-09T10:45:09.741Z,100140.69
2023-04-09T10:47:42.798Z,100147.63
2023-04-09T10:50:19.888Z,100142.59
2023-04-09T10:52:49.171Z,100129.00
2023-04-09T10:55:37.748Z,100132.44
2023-04-09T10:58:09.073Z,100129.00
2023-04-09T11:00:41.850Z,100127.34
2023-04-09T11:03:27.676Z,100118.75
2023-04-09T11:06:02.580Z,100128.16
2023-04-09T11:08:33.526Z,100129.00
2023-04-09T11:11:02.703Z,100122.22
2023-04-09T11:13:33.129Z,100125.69
2023-04-09T11:16:04.249Z,100128.16
2023-04-09T11:18:37.130Z,100123.97
2023-04-09T11:21:06.004Z,100120.56
2023-04-09T11:23:36.050Z,100123.97
2023-04-09T11:26:05.408Z,100122.31
2023-04-09T11:28:36.345Z,100119.84
2023-04-09T11:31:07.360Z,100120.75
2023-04-09T11:33:37.473Z,100113.06
2023-04-09T11:36:07.536Z,100113.06
2023-04-09T11:38:38.111Z,100116.38
2023-04-09T11:41:06.970Z,100122.22
2023-04-09T11:43:38.146Z,100116.19
2023-04-09T11:46:08.297Z,100115.28
2023-04-09T11:48:38.440Z,100118.56
2023-04-09T11:51:07.603Z,100101.47
2023-04-09T11:53:39.166Z,100107.44
2023-04-09T11:56:08.264Z,100108.16
2023-04-09T11:58:37.654Z,100113.19
2023-04-09T12:01:06.557Z,100099.56
2023-04-09T12:03:37.686Z,100107.34
2023-04-09T12:06:09.295Z,100115.72
2023-04-09T12:08:38.430Z,100115.00
2023-04-09T12:11:11.604Z,100118.56
2023-04-09T12:13:43.233Z,100112.72
2023-04-09T12:16:12.763Z,100110.97
2023-04-09T12:18:42.945Z,100110.97
2023-04-09T12:21:11.820Z,100110.91
2023-04-09T12:23:40.877Z,100115.91
2023-04-09T12:26:09.528Z,100106.53
2023-04-09T12:28:38.208Z,100107.16
2023-04-09T12:31:10.875Z,100104.50
2023-04-09T12:33:40.561Z,100094.25
2023-04-09T12:36:10.791Z,100090.81
2023-04-09T12:38:39.483Z,100099.31
2023-04-09T12:41:08.256Z,100089.00
2023-04-09T12:43:37.261Z,100085.50
2023-04-09T12:46:06.771Z,100086.25
2023-04-09T12:48:35.383Z,100072.44
2023-04-09T12:51:04.948Z,100069.81
2023-04-09T12:53:34.963Z,100069.00
2023-04-09T12:56:03.761Z,100066.44
2023-04-09T12:58:32.744Z,100057.81
2023-04-09T13:01:01.785Z,100063.78
2023-04-09T13:03:30.679Z,100052.59
2023-04-09T13:05:59.377Z,100061.06
2023-04-09T13:08:28.024Z,100053.38
2023-04-09T13:10:58.084Z,100065.28
2023-04-09T13:13:26.806Z,100053.28
2023-04-09T13:15:55.533Z,100048.25
2023-04-09T13:18:24.191Z,100043.94
2023-04-09T13:20:53.275Z,100037.94
2023-04-09T13:23:21.891Z,100036.13
2023-04-09T13:25:50.704Z,100038.59
2023-04-09T13:28:20.706Z,100035.13
2023-04-09T13:30:49.736Z,100030.53
2023-04-09T13:33:18.414Z,100026.97
2023-04-09T13:35:47.531Z,100025.06
2023-04-09T13:38:16.255Z,100020.66
2023-04-09T13:40:45.029Z,100023.84
2023-04-09T13:43:13.749Z,100011.69
2023-04-09T13:45:43.819Z,100015.72
2023-04-09T13:48:15.407Z,100012.97
2023-04-09T13:50:44.365Z,100010.22
2023-04-09T13:53:13.036Z,100004.97
2023-04-09T13:55:41.698Z,100007.47
2023-04-09T13:58:10.498Z,100004.91
2023-04-09T14:00:39.215Z,100012.59
2023-04-09T14:03:11.232Z,100005.72
2023-04-09T14:05:39.992Z,100010.94
2023-04-09T14:08:08.670Z,100005.09
2023-04-09T14:10:37.758Z,100006.03
2023-04-09T14:13:07.475Z,100002.81
2023-04-09T14:15:36.207Z,99997.78
2023-04-09T14:18:04.971Z,100003.72
2023-04-09T14:20:36.221Z,99995.22
2023-04-09T14:23:04.875Z,99996.84
2023-04-09T14:25:33.635Z,100004.53
2023-04-09T14:28:02.655Z,99998.59
2023-04-09T14:30:31.394Z,99991.00
2023-04-09T14:33:00.198Z,99990.28
2023-04-09T14:35:29.310Z,99984.34
2023-04-09T14:37:59.424Z,99991.22
2023-04-09T14:40:28.277Z,99987.00
2023-04-09T14:42:56.919Z,99986.19
2023-04-09T14:45:25.735Z,99982.78
2023-04-09T14:47:55.016Z,99982.78
2023-04-09T14:50:23.865Z,99988.75
2023-04-09T14:52:52.586Z,99981.06
2023-04-09T14:55:22.752Z,99975.09
2023-04-09T14:57:51.475Z,99970.72
2023-04-09T15:00:20.666Z,99976.56
2023-04-09T15:02:49.642Z,99967.16
2023-04-09T15:05:18.507Z,99966.13
2023-04-09T15:07:47.097Z,99968.53
2023-04-09T15:10:16.106Z,99968.53
2023-04-09T15:12:46.221Z,99960.72
2023-04-09T15:15:14.903Z,99959.72
2023-04-09T15:17:43.710Z,99962.19
2023-04-09T15:20:13.956Z,99963.84
2023-04-09T15:22:42.779Z,99958.63
2023-04-09T15:25:13.756Z,99953.41
2023-04-09T15:27:42.971Z,99952.50
2023-04-09T15:30:13.216Z,99961.72
2023-04-09T15:32:41.904Z,99947.16
2023-04-09T15:35:10.924Z,99959.06
2023-04-09T15:37:39.531Z,99948.72
2023-04-09T15:40:09.882Z,99950.38
2023-04-09T15:42:38.511Z,99951.19
2023-04-09T15:45:08.619Z,99971.69
2023-04-09T15:47:38.649Z,99964.91
2023-04-09T15:50:10.410Z,99956.41
2023-04-09T15:52:39.055Z,99966.66
2023-04-09T15:55:08.891Z,99951.28
2023-04-09T15:57:38.402Z,99961.53
2023-04-09T16:00:10.786Z,99949.63
2023-04-09T16:02:41.327Z,99954.75
2023-04-09T16:05:10.479Z,99953.84
2023-04-09T16:07:39.634Z,99951.28
2023-04-09T16:10:09.700Z,99962.34
2023-04-09T16:12:38.581Z,99947.06
2023-04-09T16:15:09.268Z,99951.28
2023-04-09T16:17:40.800Z,99950.38
2023-04-09T16:20:11.683Z,99941.84
2023-04-09T16:22:40.296Z,99948.63
2023-04-09T16:25:10.088Z,99945.31
2023-04-09T16:27:38.818Z,99947.97
2023-04-09T16:30:09.022Z,99942.16
2023-04-09T16:32:37.615Z,99948.97
2023-04-09T16:35:07.293Z,99952.59
2023-04-09T16:37:38.742Z,99956.06
2023-04-09T16:40:09.022Z,99946.00
2023-04-09T16:42:37.878Z,99948.63
2023-04-09T16:45:09.400Z,99962.50
2023-04-09T16:47:38.176Z,99953.16
2023-04-09T16:50:11.570Z,99953.31
2023-04-09T16:52:43.328Z,99959.47
2023-04-09T16:55:12.286Z,99958.72
2023-04-09T16:57:44.084Z,99957.09
2023-04-09T17:00:13.892Z,99957.19
2023-04-09T17:02:42.814Z,99953.91
2023-04-09T17:05:11.941Z,99954.72
2023-04-09T17:07:43.193Z,99959.03
2023-04-09T17:10:12.618Z,99953.91
2023-04-09T17:12:42.180Z,99953.06
2023-04-09T17:15:12.967Z,99951.44
2023-04-09T17:17:41.914Z,99951.34
2023-04-09T17:20:12.482Z,99942.81
2023-04-09T17:22:42.737Z,99954.00
2023-04-09T17:25:12.217Z,99957.38
2023-04-09T17:27:42.122Z,99946.31
2023-04-09T17:30:12.252Z,99951.50
2023-04-09T17:32:41.454Z,99957.56
2023-04-09T17:35:11.682Z,99955.00
2023-04-09T17:37:41.779Z,99956.81
2023-04-09T17:40:12.504Z,99959.38
2023-04-09T17:42:41.343Z,99967.97
2023-04-09T17:45:11.901Z,99964.59
2023-04-09T17:47:40.807Z,99967.97
2023-04-09T17:50:10.766Z,99972.28
2023-04-09T17:52:40.664Z,99967.97
2023-04-09T17:55:12.960Z,99969.72
2023-04-09T17:57:42.890Z,99970.63
2023-04-09T18:00:12.968Z,99981.72
2023-04-09T18:02:48.016Z,99981.72
2023-04-09T18:05:17.208Z,99976.66
2023-04-09T18:07:46.001Z,99979.31
2023-04-09T18:10:15.968Z,99985.38
2023-04-09T18:12:44.621Z,99988.84
2023-04-09T18:15:13.519Z,99991.50
2023-04-09T18:17:42.201Z,99995.06
2023-04-09T18:20:12.845Z,99997.81
2023-04-09T18:22:41.469Z,99994.50
2023-04-09T18:25:10.943Z,99990.28
2023-04-09T18:27:41.041Z,99988.69
2023-04-09T18:30:10.709Z,99987.91
2023-04-09T18:32:39.775Z,99998.13
2023-04-09T18:35:09.290Z,99999.94
2023-04-09T18:37:38.076Z,100007.63
2023-04-09T18:40:08.851Z,100008.56
2023-04-09T18:42:37.526Z,100013.78
2023-04-09T18:45:09.097Z,100013.84
2023-04-09T18:47:40.522Z,100025.91
2023-04-09T18:50:10.374Z,100020.97
2023-04-09T18:52:39.115Z,100028.72
2023-04-09T18:55:08.924Z,100034.88
2023-04-09T18:57:38.161Z,100019.69
2023-04-09T19:00:10.392Z,100018.97
2023-04-09T19:02:39.200Z,100013.09
2023-04-09T19:05:09.113Z,100022.69
2023-04-09T19:07:37.836Z,100022.03
2023-04-09T19:10:09.308Z,100017.84
2023-04-09T19:12:39.074Z,100021.38
2023-04-09T19:15:10.930Z,100017.28
2023-04-09T19:17:39.595Z,100020.00
2023-04-09T19:20:09.732Z,100022.75
2023-04-09T19:22:38.842Z,100020.38
2023-04-09T19:25:09.918Z,100025.66
2023-04-09T19:27:38.529Z,100035.16
2023-04-09T19:30:10.828Z,100036.97
2023-04-09T19:32:41.334Z,100029.56
2023-04-09T19:35:10.548Z,100032.31
2023-04-09T19:37:39.775Z,100034.19
2023-04-09T19:40:10.464Z,100030.16
2023-04-09T19:42:39.340Z,100034.53
2023-04-09T19:45:11.529Z,100033.81
2023-04-09T19:47:40.260Z,100031.44
2023-04-09T19:50:09.711Z,100029.97
2023-04-09T19:52:38.810Z,100023.38
2023-04-09T19:55:09.433Z,100019.25
2023-04-09T19:57:38.088Z,100027.91
2023-04-09T20:00:09.996Z,100022.88
2023-04-09T20:02:41.937Z,100029.78
2023-04-09T20:05:11.720Z,100029.13
2023-04-09T20:07:40.448Z,100036.06
2023-04-09T20:10:11.059Z,100035.25
2023-04-09T20:12:39.706Z,100033.63
2023-04-09T20:15:11.776Z,100030.28
2023-04-09T20:17:41.896Z,100041.38
2023-04-09T20:20:11.827Z,100027.03
2023-04-09T20:22:43.232Z,100039.03
2023-04-09T20:25:12.509Z,100044.25
2023-04-09T20:27:41.187Z,100041.84
2023-04-09T20:30:12.356Z,100034.38
2023-04-09T20:32:41.150Z,100030.22
2023-04-09T20:35:11.139Z,100034.56
2023-04-09T20:37:39.795Z,100030.44
2023-04-09T20:40:12.314Z,100031.38
2023-04-09T20:42:42.484Z,100035.72
2023-04-09T20:45:13.212Z,100032.44
2023-04-09T20:47:42.254Z,100030.88
2023-04-09T20:50:12.338Z,100027.47
2023-04-09T20:52:40.960Z,100024.19
2023-04-09T20:55:10.463Z,100023.44
2023-04-09T20:57:39.119Z,100016.78
2023-04-09T21:00:10.257Z,100022.88
2023-04-09T21:02:42.125Z,100023.88
2023-04-09T21:05:21.795Z,100028.16
2023-04-09T21:07:52.117Z,100019.81
2023-04-09T21:10:20.995Z,100023.38
2023-04-09T21:12:49.738Z,100024.38
2023-04-09T21:15:18.641Z,100022.72
2023-04-09T21:17:48.687Z,100020.25
2023-04-09T21:20:17.529Z,100018.59
2023-04-09T21:22:46.250Z,100020.41
2023-04-09T21:25:15.687Z,100021.31
2023-04-09T21:27:44.525Z,100018.91
2023-04-09T21:30:13.747Z,100019.06
2023-04-09T21:32:42.471Z,100026.00
2023-04-09T21:35:12.607Z,100015.91
2023-04-09T21:37:41.260Z,100016.09
2023-04-09T21:40:11.076Z,100023.09
2023-04-09T21:42:39.707Z,100024.09
2023-04-09T21:45:09.483Z,100024.97
2023-04-09T21:47:38.271Z,100020.03
2023-04-09T21:50:09.471Z,100022.66
2023-04-09T21:52:39.581Z,100013.47
2023-04-09T21:55:10.282Z,100020.34
2023-04-09T21:57:38.906Z,100008.66
2023-04-09T22:00:11.084Z,100014.75
2023-04-09T22:02:40.323Z,100002.88
2023-04-09T22:05:10.116Z,100003.81
2023-04-09T22:07:40.631Z,100002.16
2023-04-09T22:10:11.025Z,100005.50
2023-04-09T22:12:39.730Z,100003.03
2023-04-09T22:15:09.703Z,100011.59
2023-04-09T22:17:38.729Z,100006.47
2023-04-09T22:20:09.674Z,100008.22
2023-04-09T22:22:41.993Z,100009.13
2023-04-09T22:25:12.301Z,100010.88
2023-04-09T22:27:40.982Z,100015.28
2023-04-09T22:30:10.872Z,100015.28
2023-04-09T22:32:39.548Z,100016.19
2023-04-09T22:35:15.014Z,100021.44
2023-04-09T22:37:46.520Z,100019.06
2023-04-09T22:40:16.305Z,100011.50
2023-04-09T22:42:45.984Z,100014.13
2023-04-09T22:45:15.031Z,100024.25
2023-04-09T22:47:43.776Z,100023.41
2023-04-09T22:50:13.545Z,100021.78
2023-04-09T22:52:42.264Z,100015.75
2023-04-09T22:55:13.692Z,100020.84
2023-04-09T22:57:44.298Z,100019.97
2023-04-09T23:00:14.501Z,100014.13
2023-04-09T23:02:43.508Z,100016.69
2023-04-09T23:05:12.292Z,100002.34
2023-04-09T23:07:42.750Z,100009.16
2023-04-09T23:10:14.332Z,100007.53
2023-04-09T23:12:45.018Z,100016.06
2023-04-09T23:15:13.789Z,100014.41
2023-04-09T23:17:42.912Z,100014.41
2023-04-09T23:20:14.870Z,100015.31
2023-04-09T23:22:43.734Z,100006.84
2023-04-09T23:25:14.458Z,100003.47
2023-04-09T23:27:43.372Z,100000.16
2023-04-09T23:30:16.841Z,100006.94
2023-04-09T23:32:46.450Z,100002.72
2023-04-09T23:35:15.523Z,100002.81
2023-04-09T23:37:44.340Z,99987.59
2023-04-09T23:40:15.770Z,99992.75
2023-04-09T23:42:44.479Z,99990.22
2023-04-09T23:45:13.430Z,99991.09
2023-04-09T23:47:42.414Z,99984.34
2023-04-09T23:50:11.983Z,99985.25
2023-04-09T23:52:40.682Z,99981.88
2023-04-09T23:55:10.814Z,99976.03
2023-04-09T23:57:41.058Z,99978.56
